sensor_id;sensor_type;location;lat;lon;timestamp;P1;durP1;ratioP1;P2;durP2;ratioP2
16660;SDS011;8444;52.012;5.048;2022-12-01T00:01:26;42.50;;;20.60;;
16660;SDS011;8444;52.012;5.048;2022-12-01T00:03:52;40.03;;;20.23;;
16660;SDS011;8444;52.012;5.048;2022-12-01T00:06:18;49.67;;;23.07;;
16660;SDS011;8444;52.012;5.048;2022-12-01T00:08:44;46.23;;;22.17;;
16660;SDS011;8444;52.012;5.048;2022-12-01T00:11:29;39.77;;;19.47;;
16660;SDS011;8444;52.012;5.048;2022-12-01T00:13:55;45.43;;;21.43;;
16660;SDS011;8444;52.012;5.048;2022-12-01T00:16:20;42.13;;;20.40;;
16660;SDS011;8444;52.012;5.048;2022-12-01T00:18:48;40.70;;;20.30;;
16660;SDS011;8444;52.012;5.048;2022-12-01T00:21:14;48.67;;;21.70;;
16660;SDS011;8444;52.012;5.048;2022-12-01T00:23:41;45.27;;;20.73;;
16660;SDS011;8444;52.012;5.048;2022-12-01T00:26:07;42.90;;;19.97;;
16660;SDS011;8444;52.012;5.048;2022-12-01T00:28:32;40.77;;;20.33;;
16660;SDS011;8444;52.012;5.048;2022-12-01T00:30:57;45.27;;;21.23;;
16660;SDS011;8444;52.012;5.048;2022-12-01T00:33:24;48.07;;;21.83;;
16660;SDS011;8444;52.012;5.048;2022-12-01T00:35:49;50.60;;;22.37;;
16660;SDS011;8444;52.012;5.048;2022-12-01T00:38:14;47.20;;;23.43;;
16660;SDS011;8444;52.012;5.048;2022-12-01T00:40:39;46.23;;;23.10;;
16660;SDS011;8444;52.012;5.048;2022-12-01T00:43:04;48.70;;;22.20;;
16660;SDS011;8444;52.012;5.048;2022-12-01T00:45:29;47.17;;;22.97;;
16660;SDS011;8444;52.012;5.048;2022-12-01T00:47:55;52.20;;;22.70;;
16660;SDS011;8444;52.012;5.048;2022-12-01T00:50:20;44.83;;;21.67;;
16660;SDS011;8444;52.012;5.048;2022-12-01T00:52:45;50.90;;;23.63;;
16660;SDS011;8444;52.012;5.048;2022-12-01T00:55:10;52.50;;;22.77;;
16660;SDS011;8444;52.012;5.048;2022-12-01T00:57:35;51.53;;;23.40;;
16660;SDS011;8444;52.012;5.048;2022-12-01T01:00:01;50.87;;;22.23;;
16660;SDS011;8444;52.012;5.048;2022-12-01T01:02:26;55.57;;;23.80;;
16660;SDS011;8444;52.012;5.048;2022-12-01T01:04:51;50.50;;;21.10;;
16660;SDS011;8444;52.012;5.048;2022-12-01T01:07:16;56.33;;;22.80;;
16660;SDS011;8444;52.012;5.048;2022-12-01T01:09:41;46.80;;;22.07;;
16660;SDS011;8444;52.012;5.048;2022-12-01T01:12:07;47.70;;;23.17;;
16660;SDS011;8444;52.012;5.048;2022-12-01T01:14:32;43.47;;;19.97;;
16660;SDS011;8444;52.012;5.048;2022-12-01T01:16:57;48.30;;;21.10;;
16660;SDS011;8444;52.012;5.048;2022-12-01T01:19:22;54.40;;;23.77;;
16660;SDS011;8444;52.012;5.048;2022-12-01T01:21:48;50.37;;;23.23;;
16660;SDS011;8444;52.012;5.048;2022-12-01T01:24:13;51.57;;;22.60;;
16660;SDS011;8444;52.012;5.048;2022-12-01T01:26:38;53.83;;;24.47;;
16660;SDS011;8444;52.012;5.048;2022-12-01T01:29:04;57.03;;;23.50;;
16660;SDS011;8444;52.012;5.048;2022-12-01T01:31:31;58.87;;;23.37;;
16660;SDS011;8444;52.012;5.048;2022-12-01T01:33:57;47.40;;;22.73;;
16660;SDS011;8444;52.012;5.048;2022-12-01T01:36:22;49.23;;;22.33;;
16660;SDS011;8444;52.012;5.048;2022-12-01T01:38:48;54.20;;;22.93;;
16660;SDS011;8444;52.012;5.048;2022-12-01T01:41:17;59.47;;;24.03;;
16660;SDS011;8444;52.012;5.048;2022-12-01T01:46:13;56.03;;;23.37;;
16660;SDS011;8444;52.012;5.048;2022-12-01T01:48:39;57.90;;;23.10;;
16660;SDS011;8444;52.012;5.048;2022-12-01T01:51:05;56.30;;;24.73;;
16660;SDS011;8444;52.012;5.048;2022-12-01T01:53:31;53.73;;;22.83;;
16660;SDS011;8444;52.012;5.048;2022-12-01T01:55:56;51.47;;;22.77;;
16660;SDS011;8444;52.012;5.048;2022-12-01T01:58:22;49.83;;;22.17;;
16660;SDS011;8444;52.012;5.048;2022-12-01T02:00:47;50.57;;;23.70;;
16660;SDS011;8444;52.012;5.048;2022-12-01T02:03:13;58.70;;;25.33;;
16660;SDS011;8444;52.012;5.048;2022-12-01T02:05:39;53.00;;;22.67;;
16660;SDS011;8444;52.012;5.048;2022-12-01T02:08:05;55.50;;;24.27;;
16660;SDS011;8444;52.012;5.048;2022-12-01T02:13:37;56.63;;;24.47;;
16660;SDS011;8444;52.012;5.048;2022-12-01T02:18:53;57.33;;;22.80;;
16660;SDS011;8444;52.012;5.048;2022-12-01T02:21:28;62.83;;;24.10;;
16660;SDS011;8444;52.012;5.048;2022-12-01T02:31:38;56.50;;;24.07;;
16660;SDS011;8444;52.012;5.048;2022-12-01T02:34:12;68.10;;;25.10;;
16660;SDS011;8444;52.012;5.048;2022-12-01T02:39:06;59.57;;;23.40;;
16660;SDS011;8444;52.012;5.048;2022-12-01T02:41:42;53.37;;;24.73;;
16660;SDS011;8444;52.012;5.048;2022-12-01T02:44:16;54.03;;;24.37;;
16660;SDS011;8444;52.012;5.048;2022-12-01T02:46:47;56.27;;;25.10;;
16660;SDS011;8444;52.012;5.048;2022-12-01T02:49:15;55.47;;;23.80;;
16660;SDS011;8444;52.012;5.048;2022-12-01T02:51:41;59.27;;;24.53;;
16660;SDS011;8444;52.012;5.048;2022-12-01T02:54:08;55.73;;;22.80;;
16660;SDS011;8444;52.012;5.048;2022-12-01T02:56:33;52.43;;;23.50;;
16660;SDS011;8444;52.012;5.048;2022-12-01T02:58:59;51.40;;;22.33;;
16660;SDS011;8444;52.012;5.048;2022-12-01T03:06:18;54.00;;;23.97;;
16660;SDS011;8444;52.012;5.048;2022-12-01T03:11:11;54.93;;;25.77;;
16660;SDS011;8444;52.012;5.048;2022-12-01T03:14:38;59.83;;;25.13;;
16660;SDS011;8444;52.012;5.048;2022-12-01T03:19:04;63.13;;;27.00;;
16660;SDS011;8444;52.012;5.048;2022-12-01T03:21:32;60.47;;;25.17;;
16660;SDS011;8444;52.012;5.048;2022-12-01T03:24:08;58.13;;;24.53;;
16660;SDS011;8444;52.012;5.048;2022-12-01T03:26:34;59.60;;;25.27;;
16660;SDS011;8444;52.012;5.048;2022-12-01T03:29:02;69.37;;;28.00;;
16660;SDS011;8444;52.012;5.048;2022-12-01T03:31:31;68.23;;;26.40;;
16660;SDS011;8444;52.012;5.048;2022-12-01T03:34:05;62.40;;;25.13;;
16660;SDS011;8444;52.012;5.048;2022-12-01T03:36:36;59.00;;;25.63;;
16660;SDS011;8444;52.012;5.048;2022-12-01T03:39:06;65.40;;;26.53;;
16660;SDS011;8444;52.012;5.048;2022-12-01T03:41:36;68.27;;;26.53;;
16660;SDS011;8444;52.012;5.048;2022-12-01T03:44:05;67.33;;;25.77;;
16660;SDS011;8444;52.012;5.048;2022-12-01T03:46:34;66.40;;;29.30;;
16660;SDS011;8444;52.012;5.048;2022-12-01T03:49:04;63.23;;;24.03;;
16660;SDS011;8444;52.012;5.048;2022-12-01T03:51:40;68.47;;;26.13;;
16660;SDS011;8444;52.012;5.048;2022-12-01T03:54:09;65.60;;;26.20;;
16660;SDS011;8444;52.012;5.048;2022-12-01T03:56:38;74.83;;;26.83;;
16660;SDS011;8444;52.012;5.048;2022-12-01T03:59:07;62.80;;;25.43;;
16660;SDS011;8444;52.012;5.048;2022-12-01T04:01:33;69.43;;;26.60;;
16660;SDS011;8444;52.012;5.048;2022-12-01T04:04:08;60.77;;;26.07;;
16660;SDS011;8444;52.012;5.048;2022-12-01T04:06:34;69.33;;;25.67;;
16660;SDS011;8444;52.012;5.048;2022-12-01T04:08:59;72.90;;;25.27;;
16660;SDS011;8444;52.012;5.048;2022-12-01T04:11:24;67.07;;;26.53;;
16660;SDS011;8444;52.012;5.048;2022-12-01T04:14:08;72.37;;;28.47;;
16660;SDS011;8444;52.012;5.048;2022-12-01T04:16:34;72.17;;;26.67;;
16660;SDS011;8444;52.012;5.048;2022-12-01T04:18:59;68.50;;;27.07;;
16660;SDS011;8444;52.012;5.048;2022-12-01T04:21:24;77.60;;;27.77;;
16660;SDS011;8444;52.012;5.048;2022-12-01T04:23:49;63.30;;;25.10;;
16660;SDS011;8444;52.012;5.048;2022-12-01T04:26:24;74.13;;;26.77;;
16660;SDS011;8444;52.012;5.048;2022-12-01T04:28:49;66.87;;;27.03;;
16660;SDS011;8444;52.012;5.048;2022-12-01T04:31:14;60.37;;;26.70;;
16660;SDS011;8444;52.012;5.048;2022-12-01T04:33:39;73.97;;;26.90;;
16660;SDS011;8444;52.012;5.048;2022-12-01T04:36:05;66.37;;;26.30;;
16660;SDS011;8444;52.012;5.048;2022-12-01T04:38:30;80.83;;;27.63;;
16660;SDS011;8444;52.012;5.048;2022-12-01T04:40:55;69.00;;;27.03;;
16660;SDS011;8444;52.012;5.048;2022-12-01T04:43:20;68.10;;;27.43;;
16660;SDS011;8444;52.012;5.048;2022-12-01T04:45:46;73.97;;;26.03;;
16660;SDS011;8444;52.012;5.048;2022-12-01T04:48:11;70.27;;;26.80;;
16660;SDS011;8444;52.012;5.048;2022-12-01T04:50:36;71.50;;;28.10;;
16660;SDS011;8444;52.012;5.048;2022-12-01T04:53:02;72.43;;;26.50;;
16660;SDS011;8444;52.012;5.048;2022-12-01T04:55:28;75.10;;;27.27;;
16660;SDS011;8444;52.012;5.048;2022-12-01T04:57:53;71.50;;;26.20;;
16660;SDS011;8444;52.012;5.048;2022-12-01T05:00:18;71.73;;;28.00;;
16660;SDS011;8444;52.012;5.048;2022-12-01T05:02:43;78.07;;;28.57;;
16660;SDS011;8444;52.012;5.048;2022-12-01T05:05:10;69.00;;;27.90;;
16660;SDS011;8444;52.012;5.048;2022-12-01T05:07:35;64.37;;;26.53;;
16660;SDS011;8444;52.012;5.048;2022-12-01T05:10:00;63.00;;;25.47;;
16660;SDS011;8444;52.012;5.048;2022-12-01T05:12:25;72.53;;;26.90;;
16660;SDS011;8444;52.012;5.048;2022-12-01T05:14:50;62.83;;;26.50;;
16660;SDS011;8444;52.012;5.048;2022-12-01T05:17:16;74.40;;;25.47;;
16660;SDS011;8444;52.012;5.048;2022-12-01T05:19:41;71.33;;;27.33;;
16660;SDS011;8444;52.012;5.048;2022-12-01T05:22:25;62.70;;;24.43;;
16660;SDS011;8444;52.012;5.048;2022-12-01T05:24:50;63.87;;;24.97;;
16660;SDS011;8444;52.012;5.048;2022-12-01T05:27:15;68.43;;;26.00;;
16660;SDS011;8444;52.012;5.048;2022-12-01T05:29:40;66.23;;;26.73;;
16660;SDS011;8444;52.012;5.048;2022-12-01T05:32:06;68.67;;;24.73;;
16660;SDS011;8444;52.012;5.048;2022-12-01T05:34:31;69.50;;;25.10;;
16660;SDS011;8444;52.012;5.048;2022-12-01T05:36:56;65.87;;;23.87;;
16660;SDS011;8444;52.012;5.048;2022-12-01T05:39:21;62.63;;;24.60;;
16660;SDS011;8444;52.012;5.048;2022-12-01T05:41:46;61.63;;;26.17;;
16660;SDS011;8444;52.012;5.048;2022-12-01T05:44:12;62.73;;;24.90;;
16660;SDS011;8444;52.012;5.048;2022-12-01T05:46:37;59.10;;;23.97;;
16660;SDS011;8444;52.012;5.048;2022-12-01T05:49:02;58.63;;;23.83;;
16660;SDS011;8444;52.012;5.048;2022-12-01T05:51:27;72.17;;;26.80;;
16660;SDS011;8444;52.012;5.048;2022-12-01T05:53:52;63.83;;;26.43;;
16660;SDS011;8444;52.012;5.048;2022-12-01T05:56:17;67.10;;;26.80;;
16660;SDS011;8444;52.012;5.048;2022-12-01T05:58:43;60.87;;;25.77;;
16660;SDS011;8444;52.012;5.048;2022-12-01T06:01:08;69.23;;;25.20;;
16660;SDS011;8444;52.012;5.048;2022-12-01T06:03:33;72.77;;;26.03;;
16660;SDS011;8444;52.012;5.048;2022-12-01T06:05:58;60.67;;;24.90;;
16660;SDS011;8444;52.012;5.048;2022-12-01T06:08:24;63.37;;;23.70;;
16660;SDS011;8444;52.012;5.048;2022-12-01T06:10:49;69.53;;;25.43;;
16660;SDS011;8444;52.012;5.048;2022-12-01T06:13:15;61.03;;;23.33;;
16660;SDS011;8444;52.012;5.048;2022-12-01T06:15:40;64.90;;;24.87;;
16660;SDS011;8444;52.012;5.048;2022-12-01T06:18:05;58.10;;;24.03;;
16660;SDS011;8444;52.012;5.048;2022-12-01T06:20:30;70.10;;;25.70;;
16660;SDS011;8444;52.012;5.048;2022-12-01T06:22:56;67.47;;;24.93;;
16660;SDS011;8444;52.012;5.048;2022-12-01T06:25:23;69.53;;;24.90;;
16660;SDS011;8444;52.012;5.048;2022-12-01T06:27:48;69.00;;;27.07;;
16660;SDS011;8444;52.012;5.048;2022-12-01T06:30:13;68.73;;;25.40;;
16660;SDS011;8444;52.012;5.048;2022-12-01T06:32:39;69.30;;;24.87;;
16660;SDS011;8444;52.012;5.048;2022-12-01T06:35:04;65.67;;;25.00;;
16660;SDS011;8444;52.012;5.048;2022-12-01T06:37:29;76.33;;;26.03;;
16660;SDS011;8444;52.012;5.048;2022-12-01T06:39:55;72.40;;;22.90;;
16660;SDS011;8444;52.012;5.048;2022-12-01T06:42:20;76.23;;;25.53;;
16660;SDS011;8444;52.012;5.048;2022-12-01T06:44:45;65.57;;;25.80;;
16660;SDS011;8444;52.012;5.048;2022-12-01T06:47:10;71.23;;;26.50;;
16660;SDS011;8444;52.012;5.048;2022-12-01T06:49:35;74.97;;;24.47;;
16660;SDS011;8444;52.012;5.048;2022-12-01T06:52:02;71.90;;;24.57;;
16660;SDS011;8444;52.012;5.048;2022-12-01T06:54:27;79.63;;;26.80;;
16660;SDS011;8444;52.012;5.048;2022-12-01T06:56:52;63.90;;;24.90;;
16660;SDS011;8444;52.012;5.048;2022-12-01T06:59:17;76.40;;;26.33;;
16660;SDS011;8444;52.012;5.048;2022-12-01T07:01:43;77.50;;;26.80;;
16660;SDS011;8444;52.012;5.048;2022-12-01T07:04:09;70.47;;;25.13;;
16660;SDS011;8444;52.012;5.048;2022-12-01T07:06:34;69.33;;;24.57;;
16660;SDS011;8444;52.012;5.048;2022-12-01T07:08:59;66.13;;;25.10;;
16660;SDS011;8444;52.012;5.048;2022-12-01T07:11:24;76.33;;;26.03;;
16660;SDS011;8444;52.012;5.048;2022-12-01T07:13:53;73.83;;;27.73;;
16660;SDS011;8444;52.012;5.048;2022-12-01T07:16:19;81.43;;;26.00;;
16660;SDS011;8444;52.012;5.048;2022-12-01T07:18:44;83.27;;;28.00;;
16660;SDS011;8444;52.012;5.048;2022-12-01T07:21:10;77.13;;;28.17;;
16660;SDS011;8444;52.012;5.048;2022-12-01T07:23:36;82.77;;;27.87;;
16660;SDS011;8444;52.012;5.048;2022-12-01T07:26:02;70.80;;;25.90;;
16660;SDS011;8444;52.012;5.048;2022-12-01T07:28:28;76.07;;;27.43;;
16660;SDS011;8444;52.012;5.048;2022-12-01T07:30:53;71.37;;;27.13;;
16660;SDS011;8444;52.012;5.048;2022-12-01T07:33:18;78.43;;;25.77;;
16660;SDS011;8444;52.012;5.048;2022-12-01T07:35:43;76.57;;;27.57;;
16660;SDS011;8444;52.012;5.048;2022-12-01T07:38:09;82.67;;;28.53;;
16660;SDS011;8444;52.012;5.048;2022-12-01T07:40:34;70.90;;;25.57;;
16660;SDS011;8444;52.012;5.048;2022-12-01T07:42:59;84.50;;;27.70;;
16660;SDS011;8444;52.012;5.048;2022-12-01T07:45:24;81.80;;;26.10;;
16660;SDS011;8444;52.012;5.048;2022-12-01T07:47:52;85.80;;;27.63;;
16660;SDS011;8444;52.012;5.048;2022-12-01T07:50:18;93.80;;;28.90;;
16660;SDS011;8444;52.012;5.048;2022-12-01T07:52:43;92.07;;;30.83;;
16660;SDS011;8444;52.012;5.048;2022-12-01T07:55:08;84.47;;;28.73;;
16660;SDS011;8444;52.012;5.048;2022-12-01T07:57:33;90.80;;;28.70;;
16660;SDS011;8444;52.012;5.048;2022-12-01T07:59:59;87.87;;;28.07;;
16660;SDS011;8444;52.012;5.048;2022-12-01T08:02:24;89.93;;;27.53;;
16660;SDS011;8444;52.012;5.048;2022-12-01T08:04:49;93.43;;;29.23;;
16660;SDS011;8444;52.012;5.048;2022-12-01T08:07:14;89.73;;;28.80;;
16660;SDS011;8444;52.012;5.048;2022-12-01T08:09:39;87.60;;;29.03;;
16660;SDS011;8444;52.012;5.048;2022-12-01T08:12:05;74.77;;;28.33;;
16660;SDS011;8444;52.012;5.048;2022-12-01T08:14:30;105.97;;;31.23;;
16660;SDS011;8444;52.012;5.048;2022-12-01T08:16:55;101.70;;;31.13;;
16660;SDS011;8444;52.012;5.048;2022-12-01T08:19:20;97.03;;;29.67;;
16660;SDS011;8444;52.012;5.048;2022-12-01T08:21:46;95.80;;;29.50;;
16660;SDS011;8444;52.012;5.048;2022-12-01T08:24:11;96.03;;;29.80;;
16660;SDS011;8444;52.012;5.048;2022-12-01T08:26:36;85.00;;;28.87;;
16660;SDS011;8444;52.012;5.048;2022-12-01T08:29:01;99.70;;;30.73;;
16660;SDS011;8444;52.012;5.048;2022-12-01T08:31:28;99.13;;;31.33;;
16660;SDS011;8444;52.012;5.048;2022-12-01T08:33:54;88.47;;;30.77;;
16660;SDS011;8444;52.012;5.048;2022-12-01T08:36:19;104.70;;;34.23;;
16660;SDS011;8444;52.012;5.048;2022-12-01T08:38:46;106.93;;;31.93;;
16660;SDS011;8444;52.012;5.048;2022-12-01T08:41:12;113.33;;;32.90;;
16660;SDS011;8444;52.012;5.048;2022-12-01T08:43:37;107.43;;;31.27;;
16660;SDS011;8444;52.012;5.048;2022-12-01T08:46:04;103.87;;;30.87;;
16660;SDS011;8444;52.012;5.048;2022-12-01T08:48:29;109.93;;;32.23;;
16660;SDS011;8444;52.012;5.048;2022-12-01T08:51:05;105.87;;;32.33;;
16660;SDS011;8444;52.012;5.048;2022-12-01T08:53:31;92.70;;;32.07;;
16660;SDS011;8444;52.012;5.048;2022-12-01T08:55:58;102.83;;;31.47;;
16660;SDS011;8444;52.012;5.048;2022-12-01T08:58:23;104.30;;;32.57;;
16660;SDS011;8444;52.012;5.048;2022-12-01T09:00:48;120.40;;;34.53;;
16660;SDS011;8444;52.012;5.048;2022-12-01T09:03:13;107.27;;;35.30;;
16660;SDS011;8444;52.012;5.048;2022-12-01T09:05:38;125.27;;;36.73;;
16660;SDS011;8444;52.012;5.048;2022-12-01T09:08:04;109.77;;;34.50;;
16660;SDS011;8444;52.012;5.048;2022-12-01T09:10:51;104.70;;;33.13;;
16660;SDS011;8444;52.012;5.048;2022-12-01T09:13:16;119.30;;;36.13;;
16660;SDS011;8444;52.012;5.048;2022-12-01T09:15:41;112.10;;;35.60;;
16660;SDS011;8444;52.012;5.048;2022-12-01T09:18:07;105.13;;;33.73;;
16660;SDS011;8444;52.012;5.048;2022-12-01T09:20:32;108.50;;;32.30;;
16660;SDS011;8444;52.012;5.048;2022-12-01T09:22:57;102.27;;;33.20;;
16660;SDS011;8444;52.012;5.048;2022-12-01T09:25:22;108.70;;;37.20;;
16660;SDS011;8444;52.012;5.048;2022-12-01T09:27:47;118.87;;;36.97;;
16660;SDS011;8444;52.012;5.048;2022-12-01T09:30:13;113.83;;;35.27;;
16660;SDS011;8444;52.012;5.048;2022-12-01T09:32:38;105.50;;;34.23;;
16660;SDS011;8444;52.012;5.048;2022-12-01T09:35:03;99.97;;;32.97;;
16660;SDS011;8444;52.012;5.048;2022-12-01T09:37:28;93.60;;;33.57;;
16660;SDS011;8444;52.012;5.048;2022-12-01T09:39:53;112.73;;;33.57;;
16660;SDS011;8444;52.012;5.048;2022-12-01T09:42:19;114.67;;;34.57;;
16660;SDS011;8444;52.012;5.048;2022-12-01T09:44:51;108.10;;;35.77;;
16660;SDS011;8444;52.012;5.048;2022-12-01T09:47:36;109.67;;;36.27;;
16660;SDS011;8444;52.012;5.048;2022-12-01T09:50:03;105.83;;;36.43;;
16660;SDS011;8444;52.012;5.048;2022-12-01T09:52:32;95.77;;;35.97;;
16660;SDS011;8444;52.012;5.048;2022-12-01T09:54:58;103.20;;;37.80;;
16660;SDS011;8444;52.012;5.048;2022-12-01T09:57:31;94.27;;;34.97;;
16660;SDS011;8444;52.012;5.048;2022-12-01T09:59:57;96.83;;;34.80;;
16660;SDS011;8444;52.012;5.048;2022-12-01T10:04:48;94.57;;;36.13;;
16660;SDS011;8444;52.012;5.048;2022-12-01T10:12:31;82.13;;;33.50;;
16660;SDS011;8444;52.012;5.048;2022-12-01T10:20:19;53.23;;;26.97;;
16660;SDS011;8444;52.012;5.048;2022-12-01T10:22:49;52.93;;;27.37;;
16660;SDS011;8444;52.012;5.048;2022-12-01T10:25:21;47.03;;;24.83;;
16660;SDS011;8444;52.012;5.048;2022-12-01T10:30:34;45.13;;;23.00;;
16660;SDS011;8444;52.012;5.048;2022-12-01T10:35:57;43.07;;;23.50;;
16660;SDS011;8444;52.012;5.048;2022-12-01T10:38:24;40.70;;;23.07;;
16660;SDS011;8444;52.012;5.048;2022-12-01T10:40:50;41.60;;;21.35;;
16660;SDS011;8444;52.012;5.048;2022-12-01T10:43:17;45.30;;;24.92;;
16660;SDS011;8444;52.012;5.048;2022-12-01T10:45:43;37.20;;;21.45;;
16660;SDS011;8444;52.012;5.048;2022-12-01T10:48:13;38.33;;;22.65;;
16660;SDS011;8444;52.012;5.048;2022-12-01T10:50:43;43.47;;;24.75;;
16660;SDS011;8444;52.012;5.048;2022-12-01T10:55:56;36.15;;;23.15;;
16660;SDS011;8444;52.012;5.048;2022-12-01T10:58:22;41.40;;;22.83;;
16660;SDS011;8444;52.012;5.048;2022-12-01T11:00:54;41.47;;;23.13;;
16660;SDS011;8444;52.012;5.048;2022-12-01T11:03:21;43.03;;;23.10;;
16660;SDS011;8444;52.012;5.048;2022-12-01T11:05:49;43.93;;;23.47;;
16660;SDS011;8444;52.012;5.048;2022-12-01T11:08:38;40.80;;;22.17;;
16660;SDS011;8444;52.012;5.048;2022-12-01T11:11:04;39.57;;;22.87;;
16660;SDS011;8444;52.012;5.048;2022-12-01T11:13:30;36.13;;;21.57;;
16660;SDS011;8444;52.012;5.048;2022-12-01T11:15:56;39.47;;;22.17;;
16660;SDS011;8444;52.012;5.048;2022-12-01T11:18:23;41.67;;;23.13;;
16660;SDS011;8444;52.012;5.048;2022-12-01T11:23:29;39.07;;;20.97;;
16660;SDS011;8444;52.012;5.048;2022-12-01T11:25:55;38.63;;;21.27;;
16660;SDS011;8444;52.012;5.048;2022-12-01T11:28:21;37.37;;;20.07;;
16660;SDS011;8444;52.012;5.048;2022-12-01T11:30:47;37.80;;;21.00;;
16660;SDS011;8444;52.012;5.048;2022-12-01T11:33:18;37.37;;;20.10;;
16660;SDS011;8444;52.012;5.048;2022-12-01T11:35:45;37.93;;;19.93;;
16660;SDS011;8444;52.012;5.048;2022-12-01T11:38:17;34.93;;;20.47;;
16660;SDS011;8444;52.012;5.048;2022-12-01T11:40:47;36.23;;;19.10;;
16660;SDS011;8444;52.012;5.048;2022-12-01T11:43:34;34.40;;;19.97;;
16660;SDS011;8444;52.012;5.048;2022-12-01T11:45:59;33.40;;;17.70;;
16660;SDS011;8444;52.012;5.048;2022-12-01T11:48:28;31.97;;;18.63;;
16660;SDS011;8444;52.012;5.048;2022-12-01T11:51:01;33.30;;;18.63;;
16660;SDS011;8444;52.012;5.048;2022-12-01T11:55:53;40.67;;;20.90;;
16660;SDS011;8444;52.012;5.048;2022-12-01T11:58:37;31.00;;;18.47;;
16660;SDS011;8444;52.012;5.048;2022-12-01T12:01:02;29.87;;;17.80;;
16660;SDS011;8444;52.012;5.048;2022-12-01T12:03:30;33.33;;;19.27;;
16660;SDS011;8444;52.012;5.048;2022-12-01T12:21:36;30.88;;;18.50;;
16660;SDS011;8444;52.012;5.048;2022-12-01T12:24:07;29.65;;;18.27;;
16660;SDS011;8444;52.012;5.048;2022-12-01T12:39:35;29.53;;;16.70;;
16660;SDS011;8444;52.012;5.048;2022-12-01T12:42:03;27.73;;;17.35;;
16660;SDS011;8444;52.012;5.048;2022-12-01T12:50:16;30.42;;;17.00;;
16660;SDS011;8444;52.012;5.048;2022-12-01T12:52:47;30.20;;;17.10;;
16660;SDS011;8444;52.012;5.048;2022-12-01T12:55:21;27.50;;;18.90;;
16660;SDS011;8444;52.012;5.048;2022-12-01T12:57:48;28.80;;;18.27;;
16660;SDS011;8444;52.012;5.048;2022-12-01T13:00:17;30.17;;;17.47;;
16660;SDS011;8444;52.012;5.048;2022-12-01T13:07:45;31.00;;;18.13;;
16660;SDS011;8444;52.012;5.048;2022-12-01T13:10:18;32.27;;;18.03;;
16660;SDS011;8444;52.012;5.048;2022-12-01T13:12:50;30.50;;;17.97;;
16660;SDS011;8444;52.012;5.048;2022-12-01T13:15:18;29.47;;;18.63;;
16660;SDS011;8444;52.012;5.048;2022-12-01T13:17:45;30.07;;;18.23;;
16660;SDS011;8444;52.012;5.048;2022-12-01T13:20:15;31.73;;;17.80;;
16660;SDS011;8444;52.012;5.048;2022-12-01T13:22:42;31.23;;;18.60;;
16660;SDS011;8444;52.012;5.048;2022-12-01T13:25:10;27.67;;;17.37;;
16660;SDS011;8444;52.012;5.048;2022-12-01T13:27:36;31.53;;;17.87;;
16660;SDS011;8444;52.012;5.048;2022-12-01T13:30:04;29.33;;;16.67;;
16660;SDS011;8444;52.012;5.048;2022-12-01T13:32:36;28.40;;;17.00;;
16660;SDS011;8444;52.012;5.048;2022-12-01T13:35:24;33.97;;;18.63;;
16660;SDS011;8444;52.012;5.048;2022-12-01T13:37:47;30.47;;;17.30;;
16660;SDS011;8444;52.012;5.048;2022-12-01T13:40:21;30.73;;;18.33;;
16660;SDS011;8444;52.012;5.048;2022-12-01T13:43:02;35.87;;;18.23;;
16660;SDS011;8444;52.012;5.048;2022-12-01T13:45:30;28.30;;;16.73;;
16660;SDS011;8444;52.012;5.048;2022-12-01T13:47:56;28.43;;;16.50;;
16660;SDS011;8444;52.012;5.048;2022-12-01T13:55:45;31.47;;;18.43;;
16660;SDS011;8444;52.012;5.048;2022-12-01T13:58:19;29.63;;;16.90;;
16660;SDS011;8444;52.012;5.048;2022-12-01T14:00:45;31.47;;;18.17;;
16660;SDS011;8444;52.012;5.048;2022-12-01T14:08:33;28.97;;;16.00;;
16660;SDS011;8444;52.012;5.048;2022-12-01T14:13:27;29.00;;;16.83;;
16660;SDS011;8444;52.012;5.048;2022-12-01T14:15:56;31.93;;;16.87;;
16660;SDS011;8444;52.012;5.048;2022-12-01T14:18:35;29.17;;;15.60;;
16660;SDS011;8444;52.012;5.048;2022-12-01T14:21:02;28.83;;;16.87;;
16660;SDS011;8444;52.012;5.048;2022-12-01T14:23:32;26.20;;;16.03;;
16660;SDS011;8444;52.012;5.048;2022-12-01T14:26:11;25.83;;;16.63;;
16660;SDS011;8444;52.012;5.048;2022-12-01T14:34:20;23.83;;;14.77;;
16660;SDS011;8444;52.012;5.048;2022-12-01T14:36:51;27.90;;;15.30;;
16660;SDS011;8444;52.012;5.048;2022-12-01T14:39:18;25.90;;;15.40;;
16660;SDS011;8444;52.012;5.048;2022-12-01T14:41:50;25.67;;;15.23;;
16660;SDS011;8444;52.012;5.048;2022-12-01T14:44:25;29.27;;;15.97;;
16660;SDS011;8444;52.012;5.048;2022-12-01T14:47:14;25.90;;;15.07;;
16660;SDS011;8444;52.012;5.048;2022-12-01T14:49:51;24.90;;;15.60;;
16660;SDS011;8444;52.012;5.048;2022-12-01T14:54:51;26.13;;;15.63;;
16660;SDS011;8444;52.012;5.048;2022-12-01T14:57:20;28.90;;;15.00;;
16660;SDS011;8444;52.012;5.048;2022-12-01T14:59:59;30.23;;;16.17;;
16660;SDS011;8444;52.012;5.048;2022-12-01T15:02:25;28.30;;;16.23;;
16660;SDS011;8444;52.012;5.048;2022-12-01T15:07:52;28.93;;;16.30;;
16660;SDS011;8444;52.012;5.048;2022-12-01T15:12:43;26.87;;;16.40;;
16660;SDS011;8444;52.012;5.048;2022-12-01T15:17:39;29.53;;;15.93;;
16660;SDS011;8444;52.012;5.048;2022-12-01T15:20:23;30.77;;;16.93;;
16660;SDS011;8444;52.012;5.048;2022-12-01T15:22:50;28.33;;;16.20;;
16660;SDS011;8444;52.012;5.048;2022-12-01T15:25:16;30.70;;;16.80;;
16660;SDS011;8444;52.012;5.048;2022-12-01T15:27:42;28.53;;;15.80;;
16660;SDS011;8444;52.012;5.048;2022-12-01T15:30:13;30.00;;;16.13;;
16660;SDS011;8444;52.012;5.048;2022-12-01T15:32:39;33.50;;;17.67;;
16660;SDS011;8444;52.012;5.048;2022-12-01T15:35:10;29.37;;;16.73;;
16660;SDS011;8444;52.012;5.048;2022-12-01T15:37:40;34.93;;;17.37;;
16660;SDS011;8444;52.012;5.048;2022-12-01T15:40:06;32.17;;;17.20;;
16660;SDS011;8444;52.012;5.048;2022-12-01T15:42:33;35.53;;;18.83;;
16660;SDS011;8444;52.012;5.048;2022-12-01T15:47:32;34.57;;;18.17;;
16660;SDS011;8444;52.012;5.048;2022-12-01T15:49:59;33.97;;;17.50;;
16660;SDS011;8444;52.012;5.048;2022-12-01T15:52:24;35.37;;;16.73;;
16660;SDS011;8444;52.012;5.048;2022-12-01T15:54:50;35.53;;;17.70;;
16660;SDS011;8444;52.012;5.048;2022-12-01T15:57:16;36.60;;;17.33;;
16660;SDS011;8444;52.012;5.048;2022-12-01T15:59:43;35.47;;;16.67;;
16660;SDS011;8444;52.012;5.048;2022-12-01T16:02:20;39.03;;;18.27;;
16660;SDS011;8444;52.012;5.048;2022-12-01T16:04:46;35.53;;;19.00;;
16660;SDS011;8444;52.012;5.048;2022-12-01T16:07:12;34.70;;;17.80;;
16660;SDS011;8444;52.012;5.048;2022-12-01T16:09:41;37.60;;;17.53;;
16660;SDS011;8444;52.012;5.048;2022-12-01T16:14:48;36.37;;;17.77;;
16660;SDS011;8444;52.012;5.048;2022-12-01T16:17:14;33.77;;;17.00;;
16660;SDS011;8444;52.012;5.048;2022-12-01T16:19:41;36.60;;;17.17;;
16660;SDS011;8444;52.012;5.048;2022-12-01T16:24:42;35.57;;;17.43;;
16660;SDS011;8444;52.012;5.048;2022-12-01T16:27:24;37.40;;;15.93;;
16660;SDS011;8444;52.012;5.048;2022-12-01T16:29:54;30.43;;;16.50;;
16660;SDS011;8444;52.012;5.048;2022-12-01T16:34:45;41.67;;;19.13;;
16660;SDS011;8444;52.012;5.048;2022-12-01T16:37:11;41.73;;;16.77;;
16660;SDS011;8444;52.012;5.048;2022-12-01T16:39:36;35.20;;;16.27;;
16660;SDS011;8444;52.012;5.048;2022-12-01T16:42:02;38.63;;;17.40;;
16660;SDS011;8444;52.012;5.048;2022-12-01T16:44:27;37.47;;;17.27;;
16660;SDS011;8444;52.012;5.048;2022-12-01T16:46:52;34.63;;;18.00;;
16660;SDS011;8444;52.012;5.048;2022-12-01T16:49:18;36.07;;;18.03;;